Time;durP1;ratioP1;P1;durP2;ratioP2;P2;SDS_P1;SDS_P2;PMS_P1;PMS_P2;Temp;Humidity;BMP_temperature;BMP_pressure;BME280_temperature;BME280_humidity;BME280_pressure;Samples;Min_cycle;Max_cycle;Signal;HPM_P1;HPM_P2
2023/01/19 00:00:16;;;;;;;6.32;4.90;;;3.10;59.70;;;;;;5038132;28;20037;-78
2023/01/19 00:02:46;;;;;;;6.13;5.13;;;3.10;59.70;;;;;;5020647;28;20049;-78
2023/01/19 00:05:13;;;;;;;7.95;5.45;;;3.00;59.50;;;;;;5021219;28;20112;-77
2023/01/19 00:07:39;;;;;;;7.22;4.93;;;3.00;59.50;;;;;;5037793;28;20659;-77
2023/01/19 00:10:06;;;;;;;8.30;5.50;;;3.00;59.50;;;;;;5032241;28;20116;-78
2023/01/19 00:12:32;;;;;;;7.30;5.72;;;3.00;59.50;;;;;;5034579;28;20037;-78
2023/01/19 00:14:58;;;;;;;7.55;5.80;;;3.00;59.60;;;;;;5026225;28;20040;-78
2023/01/19 00:17:24;;;;;;;9.13;5.18;;;2.90;59.40;;;;;;5034717;28;20542;-78
2023/01/19 00:19:50;;;;;;;6.43;4.18;;;2.90;59.40;;;;;;5032524;28;20539;-78
2023/01/19 00:22:15;;;;;;;8.25;5.22;;;2.90;59.50;;;;;;5024075;28;20026;-77
2023/01/19 00:24:41;;;;;;;5.10;4.60;;;2.90;59.50;;;;;;5016598;28;20120;-78
2023/01/19 00:27:07;;;;;;;5.00;4.20;;;2.80;59.30;;;;;;5023827;28;20611;-78
2023/01/19 00:29:34;;;;;;;7.00;4.60;;;2.90;59.50;;;;;;5023000;28;20425;-78
2023/01/19 00:32:00;;;;;;;8.48;4.40;;;2.90;59.50;;;;;;5007971;28;20116;-78
2023/01/19 00:34:35;;;;;;;7.93;4.60;;;2.90;59.50;;;;;;5018963;28;20064;-79
2023/01/19 00:37:08;;;;;;;4.85;4.20;;;2.80;59.40;;;;;;5028220;28;20030;-78
2023/01/19 00:39:34;;;;;;;;;;;2.80;59.40;;;;;;5019230;28;20033;-79
2023/01/19 00:44:44;;;;;;;6.00;4.55;;;2.90;59.50;;;;;;5009427;28;20424;-78
2023/01/19 00:47:10;;;;;;;6.90;4.65;;;2.80;59.30;;;;;;5022364;28;20061;-78
2023/01/19 00:49:36;;;;;;;7.03;5.10;;;2.80;59.30;;;;;;5016162;28;20113;-78
2023/01/19 00:52:02;;;;;;;7.75;4.90;;;2.80;59.30;;;;;;5019211;28;20038;-77
2023/01/19 00:54:29;;;;;;;7.35;4.80;;;2.80;59.40;;;;;;5021989;28;20068;-78
2023/01/19 00:56:55;;;;;;;7.72;4.80;;;2.80;59.40;;;;;;5022695;28;20029;-80
2023/01/19 00:59:21;;;;;;;9.15;5.35;;;2.80;59.40;;;;;;5018340;28;20048;-79
2023/01/19 01:01:47;;;;;;;6.03;4.70;;;2.70;59.20;;;;;;5022078;28;20040;-79
2023/01/19 01:04:13;;;;;;;7.35;5.15;;;2.70;59.20;;;;;;5018261;28;20747;-77
2023/01/19 01:06:39;;;;;;;7.65;4.68;;;2.70;59.20;;;;;;5021586;28;20033;-79
2023/01/19 01:09:10;;;;;;;5.30;4.80;;;2.70;59.20;;;;;;5021823;28;20059;-78
2023/01/19 01:11:41;;;;;;;6.22;4.65;;;2.70;59.20;;;;;;5013460;28;20030;-78
2023/01/19 01:14:08;;;;;;;6.20;4.38;;;2.70;59.30;;;;;;5019340;28;20154;-78
2023/01/19 01:16:34;;;;;;;5.43;4.75;;;2.70;59.30;;;;;;5017580;28;20496;-78
2023/01/19 01:19:00;;;;;;;5.93;5.07;;;2.60;59.10;;;;;;5029016;28;20112;-78
2023/01/19 01:21:26;;;;;;;5.53;4.53;;;2.60;59.10;;;;;;5016444;28;20030;-78
2023/01/19 01:23:52;;;;;;;6.55;4.32;;;2.60;59.60;;;;;;5024631;28;20025;-78
2023/01/19 01:26:18;;;;;;;6.60;4.25;;;2.50;58.90;;;;;;5016497;28;20021;-79
2023/01/19 01:28:44;;;;;;;5.25;4.68;;;2.50;58.90;;;;;;5026812;28;20033;-78
2023/01/19 01:31:10;;;;;;;7.53;5.03;;;2.50;59.00;;;;;;5023116;28;20427;-79
2023/01/19 01:33:36;;;;;;;5.05;4.55;;;2.50;59.00;;;;;;5013552;28;20048;-80
2023/01/19 01:36:03;;;;;;;6.07;4.78;;;2.50;59.00;;;;;;5020740;28;20099;-79
2023/01/19 01:38:29;;;;;;;7.00;4.93;;;2.50;59.00;;;;;;5020363;28;20160;-80
2023/01/19 01:40:54;;;;;;;6.35;5.15;;;2.50;59.00;;;;;;5024786;28;20033;-80
2023/01/19 01:43:20;;;;;;;5.47;4.93;;;2.50;59.00;;;;;;5023648;28;20021;-79
2023/01/19 01:45:46;;;;;;;6.22;4.50;;;2.50;59.10;;;;;;5025502;28;20034;-80
2023/01/19 01:48:17;;;;;;;5.38;4.88;;;2.40;58.90;;;;;;5026227;28;20135;-78
2023/01/19 01:51:23;;;;;;;5.60;4.63;;;2.40;58.90;;;;;;5018548;28;20036;-80
2023/01/19 01:54:12;;;;;;;5.18;4.40;;;2.40;58.90;;;;;;5025429;28;20079;-81
2023/01/19 01:56:41;;;;;;;4.90;4.38;;;2.40;58.90;;;;;;5038206;28;20031;-80
2023/01/19 01:59:16;;;;;;;5.22;4.28;;;2.30;58.80;;;;;;5045111;28;20025;-80
2023/01/19 02:04:29;;;;;;;6.53;4.57;;;2.30;58.80;;;;;;5018103;28;20029;-79
2023/01/19 02:15:17;;;;;;;6.53;4.82;;;2.30;58.80;;;;;;5038766;28;20037;-78
2023/01/19 02:17:43;;;;;;;6.40;4.82;;;2.20;58.60;;;;;;5024342;28;20065;-78
2023/01/19 02:20:10;;;;;;;5.60;5.05;;;2.20;58.70;;;;;;5019133;28;20476;-78
2023/01/19 02:22:46;;;;;;;5.25;4.07;;;2.10;58.50;;;;;;5024200;28;20043;-79
2023/01/19 02:25:13;;;;;;;4.68;4.00;;;2.10;58.50;;;;;;5019199;28;20025;-77
2023/01/19 02:27:40;;;;;;;6.38;4.72;;;2.10;58.50;;;;;;5023223;28;20037;-78
2023/01/19 02:30:08;;;;;;;6.97;4.68;;;2.10;59.10;;;;;;5021985;28;20377;-78
2023/01/19 02:32:34;;;;;;;6.10;5.03;;;2.10;58.60;;;;;;5013014;28;20044;-78
2023/01/19 02:35:01;;;;;;;6.18;4.85;;;2.00;58.40;;;;;;5036916;28;20102;-78
2023/01/19 02:37:31;;;;;;;5.70;4.78;;;2.00;58.50;;;;;;5030006;28;20086;-79
2023/01/19 02:40:00;;;;;;;6.55;4.80;;;2.00;58.50;;;;;;5042809;28;20052;-79
2023/01/19 02:42:34;;;;;;;6.50;5.38;;;1.90;58.40;;;;;;5027816;28;20041;-78
2023/01/19 02:45:05;;;;;;;6.30;5.63;;;1.90;58.40;;;;;;5024495;28;20084;-78
2023/01/19 02:47:46;;;;;;;8.18;5.20;;;1.90;58.40;;;;;;5018293;28;20516;-77
2023/01/19 02:50:35;;;;;;;5.72;4.82;;;1.90;58.40;;;;;;5028572;28;20440;-78
2023/01/19 02:53:44;;;;;;;6.20;5.10;;;1.90;58.40;;;;;;5028444;28;20036;-78
2023/01/19 02:56:31;;;;;;;6.13;5.28;;;1.90;58.40;;;;;;5003160;28;20066;-78
2023/01/19 02:59:27;;;;;;;5.65;4.78;;;1.90;58.40;;;;;;5015398;28;20041;-78
2023/01/19 03:02:10;;;;;;;5.53;4.88;;;1.90;58.40;;;;;;5025031;28;20084;-78
2023/01/19 03:04:52;;;;;;;6.72;4.88;;;1.80;58.20;;;;;;5010301;28;20119;-78
2023/01/19 03:07:43;;;;;;;6.32;4.40;;;1.80;58.20;;;;;;5026449;28;20044;-77
2023/01/19 03:10:35;;;;;;;5.72;5.10;;;1.80;58.20;;;;;;5029968;28;20036;-78
2023/01/19 03:13:07;;;;;;;7.63;4.53;;;1.80;58.20;;;;;;5025535;28;20049;-78
2023/01/19 03:15:46;;;;;;;5.53;4.45;;;1.80;58.20;;;;;;5026494;28;20091;-77
2023/01/19 03:18:15;;;;;;;5.00;4.50;;;1.80;58.30;;;;;;5026192;28;20033;-77
2023/01/19 03:20:43;;;;;;;5.38;4.10;;;1.70;58.10;;;;;;5024470;28;20033;-77
2023/01/19 03:23:12;;;;;;;5.25;4.35;;;1.70;58.10;;;;;;5026543;28;20456;-77
2023/01/19 03:25:42;;;;;;;4.05;3.65;;;1.70;58.20;;;;;;5022032;28;20106;-77
2023/01/19 03:28:08;;;;;;;4.95;4.35;;;1.70;58.20;;;;;;5038869;28;20026;-77
2023/01/19 03:30:39;;;;;;;5.38;4.88;;;1.70;58.20;;;;;;5027207;28;20570;-78
2023/01/19 03:33:14;;;;;;;4.70;4.22;;;1.60;58.00;;;;;;5015440;28;20070;-77
2023/01/19 03:35:45;;;;;;;4.50;4.05;;;1.60;58.00;;;;;;5025323;28;20286;-77
2023/01/19 03:38:16;;;;;;;5.70;4.10;;;1.60;58.00;;;;;;5027657;28;20239;-77
2023/01/19 03:40:43;;;;;;;5.40;4.38;;;1.60;58.00;;;;;;5025824;28;20033;-78
2023/01/19 03:43:09;;;;;;;5.72;4.60;;;1.60;58.10;;;;;;5025526;28;20041;-78
2023/01/19 03:45:37;;;;;;;4.95;4.20;;;1.60;58.10;;;;;;5024734;28;20037;-78
2023/01/19 03:48:05;;;;;;;6.32;4.10;;;1.50;58.00;;;;;;5026796;28;20076;-76
2023/01/19 03:50:31;;;;;;;4.55;4.13;;;1.50;57.90;;;;;;5027267;28;20488;-78
2023/01/19 03:53:01;;;;;;;5.18;4.20;;;1.60;58.10;;;;;;5025644;28;20469;-77
2023/01/19 03:55:27;;;;;;;4.97;4.47;;;1.60;58.10;;;;;;5012647;28;20072;-77
2023/01/19 03:57:53;;;;;;;4.68;4.20;;;1.60;58.10;;;;;;5026858;28;20033;-78
2023/01/19 04:00:19;;;;;;;4.88;4.38;;;1.50;57.90;;;;;;5026310;28;20037;-78
2023/01/19 04:02:45;;;;;;;4.85;4.25;;;1.50;57.90;;;;;;5025236;28;20428;-77
2023/01/19 04:05:11;;;;;;;4.25;3.88;;;1.50;57.90;;;;;;5027148;28;20025;-78
2023/01/19 04:07:37;;;;;;;5.15;4.57;;;1.50;58.00;;;;;;5025374;28;20158;-77
2023/01/19 04:10:03;;;;;;;5.68;3.80;;;1.50;57.90;;;;;;5040332;28;20034;-78
2023/01/19 04:12:29;;;;;;;5.20;4.70;;;1.50;57.90;;;;;;5016469;28;20471;-77
2023/01/19 04:14:55;;;;;;;5.93;3.95;;;1.50;58.00;;;;;;5033767;28;20535;-77
2023/01/19 04:17:21;;;;;;;4.38;3.97;;;1.50;58.00;;;;;;5028167;28;20029;-77
2023/01/19 04:19:47;;;;;;;5.30;4.25;;;1.50;58.00;;;;;;5026610;28;20526;-77
2023/01/19 04:22:13;;;;;;;4.90;4.47;;;1.50;58.00;;;;;;5040877;28;20491;-79
2023/01/19 04:24:39;;;;;;;4.45;3.90;;;1.50;58.00;;;;;;5020274;28;20065;-78
2023/01/19 04:27:05;;;;;;;4.82;3.80;;;1.50;58.00;;;;;;5024856;28;20124;-79
2023/01/19 04:29:31;;;;;;;5.95;4.38;;;1.50;58.00;;;;;;5025366;28;20069;-79
2023/01/19 04:31:57;;;;;;;4.90;4.18;;;1.50;58.00;;;;;;5026783;28;20036;-78
2023/01/19 04:34:23;;;;;;;4.60;4.13;;;1.40;57.80;;;;;;5032183;28;20048;-78
2023/01/19 04:36:50;;;;;;;4.45;3.55;;;1.40;57.80;;;;;;5026019;28;20088;-78
2023/01/19 04:39:16;;;;;;;4.57;4.03;;;1.40;57.80;;;;;;5013914;28;20037;-79
2023/01/19 04:41:42;;;;;;;4.72;3.60;;;1.40;57.80;;;;;;5026865;28;20033;-77
2023/01/19 04:44:08;;;;;;;4.55;4.15;;;1.40;57.80;;;;;;5026714;28;20087;-78
2023/01/19 04:46:34;;;;;;;4.75;4.30;;;1.40;57.90;;;;;;5022591;28;20045;-77
2023/01/19 04:49:00;;;;;;;4.32;3.65;;;1.40;58.40;;;;;;5026466;28;20064;-79
2023/01/19 04:51:27;;;;;;;4.70;4.15;;;1.40;57.80;;;;;;5026917;28;20037;-78
2023/01/19 04:53:53;;;;;;;6.28;4.13;;;1.40;57.90;;;;;;5010912;28;20048;-79
2023/01/19 04:56:19;;;;;;;5.90;4.22;;;1.40;57.90;;;;;;5011704;28;20034;-78
2023/01/19 04:58:45;;;;;;;7.25;4.40;;;1.40;57.90;;;;;;5027807;28;20381;-79
2023/01/19 05:01:11;;;;;;;6.72;3.90;;;1.40;57.90;;;;;;5028162;28;20033;-79
2023/01/19 05:03:36;;;;;;;4.13;3.72;;;1.40;57.80;;;;;;5018419;28;20038;-78
2023/01/19 05:06:03;;;;;;;6.90;4.13;;;1.40;57.80;;;;;;5023795;28;20079;-78
2023/01/19 05:08:29;;;;;;;3.78;3.40;;;1.40;57.90;;;;;;5026492;28;20040;-78
2023/01/19 05:10:56;;;;;;;4.93;4.10;;;1.40;57.80;;;;;;5022281;28;20716;-78
2023/01/19 05:13:22;;;;;;;5.90;4.10;;;1.40;57.80;;;;;;5030354;28;20091;-79
2023/01/19 05:15:49;;;;;;;4.10;3.53;;;1.40;57.80;;;;;;5030225;28;20753;-78
2023/01/19 05:18:15;;;;;;;4.68;3.95;;;1.40;57.90;;;;;;5028752;28;20029;-78
2023/01/19 05:20:41;;;;;;;4.40;3.67;;;1.40;57.90;;;;;;5031293;28;20041;-79
2023/01/19 05:23:07;;;;;;;3.67;3.38;;;1.40;57.90;;;;;;5030685;28;20028;-79
2023/01/19 05:25:32;;;;;;;4.03;3.63;;;1.40;57.90;;;;;;5030326;28;20084;-79
2023/01/19 05:27:58;;;;;;;4.78;3.92;;;1.40;57.90;;;;;;5031020;28;20183;-79
2023/01/19 05:30:24;;;;;;;3.78;3.30;;;1.40;57.90;;;;;;5029214;28;20060;-79
2023/01/19 05:32:50;;;;;;;4.90;3.90;;;1.40;57.90;;;;;;5030307;28;20120;-79
2023/01/19 05:35:16;;;;;;;3.92;3.45;;;1.30;58.20;;;;;;5032698;28;20057;-79
2023/01/19 05:37:43;;;;;;;4.43;3.47;;;1.30;57.70;;;;;;5026443;28;20037;-79
2023/01/19 05:40:09;;;;;;;4.90;3.67;;;1.40;57.90;;;;;;5013363;28;20508;-79
2023/01/19 05:42:35;;;;;;;4.07;3.40;;;1.30;57.70;;;;;;5031986;28;20028;-78
2023/01/19 05:45:01;;;;;;;4.43;4.03;;;1.30;57.70;;;;;;5031021;28;20044;-79
2023/01/19 05:47:31;;;;;;;8.18;3.30;;;1.40;57.90;;;;;;5026827;28;20472;-77
2023/01/19 05:49:57;;;;;;;4.45;3.30;;;1.30;57.80;;;;;;5034984;28;20418;-78
2023/01/19 05:52:26;;;;;;;4.35;3.58;;;1.30;57.70;;;;;;5020636;28;20030;-79
2023/01/19 05:54:53;;;;;;;5.15;3.67;;;1.40;57.90;;;;;;5023976;28;20057;-78
2023/01/19 05:57:21;;;;;;;3.97;3.42;;;1.30;57.70;;;;;;5019904;28;20030;-78
2023/01/19 05:59:46;;;;;;;4.18;3.70;;;1.30;57.70;;;;;;5025750;28;20034;-78
2023/01/19 06:02:12;;;;;;;5.38;3.63;;;1.30;57.70;;;;;;5018949;28;20026;-79
2023/01/19 06:04:38;;;;;;;4.78;3.40;;;1.30;57.70;;;;;;5037159;28;20041;-79
2023/01/19 06:07:05;;;;;;;3.45;3.15;;;1.30;57.70;;;;;;5019236;28;20029;-79
2023/01/19 06:09:32;;;;;;;5.13;3.63;;;1.30;57.70;;;;;;5014553;28;20397;-79
2023/01/19 06:11:58;;;;;;;4.28;3.60;;;1.30;57.70;;;;;;5026727;28;20446;-78
2023/01/19 06:14:25;;;;;;;4.57;3.28;;;1.40;57.90;;;;;;5017893;28;20078;-79
2023/01/19 06:16:51;;;;;;;4.60;3.45;;;1.30;57.70;;;;;;5042726;28;20029;-78
2023/01/19 06:19:17;;;;;;;4.90;3.42;;;1.40;57.90;;;;;;5039832;28;20040;-79
2023/01/19 06:21:48;;;;;;;4.05;3.65;;;1.30;57.70;;;;;;5020486;28;20457;-79
2023/01/19 06:24:15;;;;;;;4.40;3.60;;;1.30;57.70;;;;;;5025792;28;20384;-77
2023/01/19 06:26:42;;;;;;;4.97;4.03;;;1.30;57.70;;;;;;5031158;28;20045;-79
2023/01/19 06:29:10;;;;;;;4.10;3.70;;;1.30;57.70;;;;;;5028688;28;20028;-78
2023/01/19 06:31:36;;;;;;;6.50;3.30;;;1.30;57.70;;;;;;5043623;28;20067;-77
2023/01/19 06:34:02;;;;;;;3.60;3.30;;;1.30;57.70;;;;;;5032009;28;20465;-78
2023/01/19 06:36:28;;;;;;;6.25;3.58;;;1.40;57.90;;;;;;5023729;28;20088;-78
2023/01/19 06:38:54;;;;;;;6.45;3.75;;;1.30;57.70;;;;;;5034510;28;20638;-84
2023/01/19 06:41:20;;;;;;;9.48;4.60;;;1.30;57.70;;;;;;5022000;28;20037;-89
2023/01/19 06:43:46;;;;;;;4.43;3.60;;;1.30;57.70;;;;;;5031939;28;20040;-82
2023/01/19 06:46:12;;;;;;;4.10;3.67;;;1.30;57.70;;;;;;5035603;28;20053;-80
2023/01/19 06:48:38;;;;;;;7.00;4.13;;;1.40;57.90;;;;;;5034444;28;20060;-81
2023/01/19 06:51:05;;;;;;;3.90;3.35;;;1.40;57.90;;;;;;5042820;28;20468;-82
2023/01/19 06:53:31;;;;;;;5.10;4.07;;;1.40;57.90;;;;;;5028583;28;20041;-83
2023/01/19 06:56:00;;;;;;;4.22;3.53;;;1.40;57.90;;;;;;5022969;28;20055;-86
2023/01/19 06:58:27;;;;;;;5.28;3.50;;;1.40;57.90;;;;;;5042581;28;20037;-81
2023/01/19 07:00:55;;;;;;;4.82;4.18;;;1.40;58.00;;;;;;5024914;28;20132;-82
2023/01/19 07:03:22;;;;;;;5.00;3.55;;;1.40;58.10;;;;;;5014671;28;20390;-83
2023/01/19 07:05:52;;;;;;;6.35;3.58;;;1.50;58.30;;;;;;5025625;28;20072;-82
2023/01/19 07:08:18;;;;;;;5.82;3.97;;;1.50;58.20;;;;;;5027832;28;20045;-82
2023/01/19 07:10:44;;;;;;;4.10;3.70;;;1.50;58.10;;;;;;5035506;28;20033;-77
2023/01/19 07:13:10;;;;;;;5.68;3.70;;;1.60;58.30;;;;;;5041290;28;20402;-76
2023/01/19 07:15:36;;;;;;;7.15;4.38;;;1.60;58.20;;;;;;5022515;28;20085;-82
2023/01/19 07:18:06;;;;;;;6.00;4.10;;;1.60;58.30;;;;;;5043150;28;20029;-82
2023/01/19 07:20:36;;;;;;;8.90;4.10;;;1.60;58.30;;;;;;5019830;28;20048;-83
2023/01/19 07:23:03;;;;;;;4.57;3.88;;;1.50;58.10;;;;;;5030828;28;20096;-78
2023/01/19 07:25:29;;;;;;;5.97;4.22;;;1.50;58.20;;;;;;5031452;28;20025;-79
2023/01/19 07:27:59;;;;;;;4.55;4.15;;;1.60;58.40;;;;;;5024450;28;20029;-78
2023/01/19 07:30:25;;;;;;;5.28;3.90;;;1.50;58.20;;;;;;5020280;28;20025;-79
2023/01/19 07:32:55;;;;;;;4.95;4.25;;;1.50;58.20;;;;;;5025992;28;20061;-81
2023/01/19 07:35:21;;;;;;;5.32;4.25;;;1.50;58.30;;;;;;5027748;28;20477;-85
2023/01/19 07:37:47;;;;;;;5.18;3.80;;;1.50;58.30;;;;;;5034830;28;20036;-86
2023/01/19 07:40:13;;;;;;;8.07;4.80;;;1.50;58.30;;;;;;5045462;28;20492;-84
2023/01/19 07:42:49;;;;;;;8.15;4.00;;;1.50;58.30;;;;;;5038736;28;20450;-85
2023/01/19 07:45:19;;;;;;;6.53;4.75;;;1.50;58.30;;;;;;5035290;28;20044;-85
2023/01/19 07:47:49;;;;;;;4.68;3.95;;;1.50;58.30;;;;;;5034711;28;20099;-85
2023/01/19 07:50:20;;;;;;;5.82;4.20;;;1.50;58.40;;;;;;5026945;28;20063;-86
2023/01/19 07:52:46;;;;;;;6.50;4.68;;;1.50;58.40;;;;;;5024386;28;20026;-83
2023/01/19 07:55:12;;;;;;;6.43;4.55;;;1.50;58.40;;;;;;5028913;28;20045;-85
2023/01/19 07:57:37;;;;;;;5.28;4.20;;;1.50;58.40;;;;;;5024813;28;20059;-86
2023/01/19 08:00:04;;;;;;;7.40;4.13;;;1.50;58.50;;;;;;5032015;28;20128;-86
2023/01/19 08:02:38;;;;;;;6.03;4.50;;;1.50;58.40;;;;;;5031039;28;20036;-87
2023/01/19 08:05:04;;;;;;;4.90;4.28;;;1.50;58.40;;;;;;5033811;28;20071;-85
2023/01/19 08:07:32;;;;;;;5.55;4.43;;;1.50;58.40;;;;;;5029303;28;20028;-86
2023/01/19 08:09:58;;;;;;;5.05;3.95;;;1.50;58.40;;;;;;5035560;28;20403;-83
2023/01/19 08:12:24;;;;;;;5.03;3.80;;;1.50;58.50;;;;;;5031614;28;20048;-78
2023/01/19 08:14:50;;;;;;;5.13;4.28;;;1.50;58.40;;;;;;5032018;28;20069;-83
2023/01/19 08:17:16;;;;;;;5.43;4.53;;;1.50;58.40;;;;;;5018557;28;20026;-84
2023/01/19 08:19:43;;;;;;;5.15;3.85;;;1.50;58.40;;;;;;5033130;28;20033;-82
2023/01/19 08:22:09;;;;;;;7.35;4.18;;;1.50;58.40;;;;;;5026238;28;20044;-82
2023/01/19 08:24:35;;;;;;;6.28;4.10;;;1.50;58.40;;;;;;5036266;28;20552;-83
2023/01/19 08:27:04;;;;;;;5.72;4.38;;;1.50;58.40;;;;;;5023903;28;20029;-84
2023/01/19 08:29:30;;;;;;;8.70;4.85;;;1.50;58.40;;;;;;5033456;28;20036;-87
2023/01/19 08:31:58;;;;;;;5.93;4.30;;;1.40;58.30;;;;;;5042545;28;20514;-85
2023/01/19 08:34:24;;;;;;;7.68;4.13;;;1.40;58.30;;;;;;5019863;28;20045;-83
2023/01/19 08:36:50;;;;;;;5.30;3.78;;;1.40;58.30;;;;;;5041448;28;20033;-83
2023/01/19 08:39:17;;;;;;;5.47;3.72;;;1.40;58.30;;;;;;5032708;28;20477;-88
2023/01/19 08:41:43;;;;;;;6.13;3.78;;;1.40;58.30;;;;;;5045021;28;20033;-84
2023/01/19 08:44:09;;;;;;;6.70;4.75;;;1.40;58.30;;;;;;5034120;28;20045;-79
2023/01/19 08:46:35;;;;;;;6.82;4.88;;;1.40;58.40;;;;;;5038646;28;20076;-78
2023/01/19 08:49:01;;;;;;;8.63;4.68;;;1.40;58.40;;;;;;5030215;28;20058;-77
2023/01/19 08:51:27;;;;;;;5.90;4.55;;;1.30;58.20;;;;;;5041625;28;20040;-89
2023/01/19 08:53:53;;;;;;;5.53;4.00;;;1.30;58.20;;;;;;5033520;28;20060;-86
2023/01/19 08:56:19;;;;;;;6.40;4.95;;;1.30;58.20;;;;;;5026040;28;20048;-87
2023/01/19 08:58:51;;;;;;;6.53;4.85;;;1.30;58.20;;;;;;5043496;28;20087;-84
2023/01/19 09:01:19;;;;;;;8.18;4.80;;;1.30;58.30;;;;;;5036013;28;20030;-83
2023/01/19 09:03:45;;;;;;;4.57;4.15;;;1.30;58.20;;;;;;5028879;28;20041;-85
2023/01/19 09:06:15;;;;;;;7.70;5.28;;;1.40;58.40;;;;;;5029801;28;20025;-85
2023/01/19 09:08:42;;;;;;;6.40;5.10;;;1.40;58.40;;;;;;5027156;28;20414;-86
2023/01/19 09:11:10;;;;;;;8.10;5.20;;;1.40;58.30;;;;;;5029804;28;20393;-78
2023/01/19 09:13:37;;;;;;;7.90;4.80;;;1.40;58.30;;;;;;5033833;28;20088;-79
2023/01/19 09:16:03;;;;;;;9.13;5.07;;;1.40;58.30;;;;;;5019736;28;20049;-79
2023/01/19 09:18:29;;;;;;;8.05;5.15;;;1.50;58.40;;;;;;5028607;28;20083;-78
2023/01/19 09:20:56;;;;;;;10.52;5.28;;;1.50;58.40;;;;;;5029535;28;20036;-78
2023/01/19 09:23:22;;;;;;;8.93;5.20;;;1.50;58.30;;;;;;5028364;28;20179;-89
2023/01/19 09:25:59;;;;;;;7.50;5.43;;;1.50;58.30;;;;;;5032410;28;20033;-86
2023/01/19 09:28:26;;;;;;;8.77;5.20;;;1.50;58.30;;;;;;5048599;28;20049;-86
2023/01/19 09:30:55;;;;;;;7.82;5.38;;;1.50;58.30;;;;;;5034258;28;20041;-78
2023/01/19 09:33:23;;;;;;;6.25;5.53;;;1.50;58.20;;;;;;5026520;28;20041;-81
2023/01/19 09:35:50;;;;;;;11.23;6.43;;;1.60;58.40;;;;;;5035356;28;20067;-85
2023/01/19 09:38:17;;;;;;;11.27;5.78;;;1.60;58.40;;;;;;5032699;28;20493;-85
2023/01/19 09:40:53;;;;;;;8.02;5.97;;;1.60;58.40;;;;;;5028098;28;20484;-84
2023/01/19 09:43:22;;;;;;;8.15;5.40;;;1.60;58.40;;;;;;5020784;28;20110;-86
2023/01/19 09:46:01;;;;;;;6.78;5.55;;;1.70;58.50;;;;;;5041372;28;20119;-87
2023/01/19 09:48:39;;;;;;;9.32;6.35;;;1.70;58.50;;;;;;5035034;28;20056;-87
2023/01/19 09:51:10;;;;;;;8.00;5.82;;;1.70;58.40;;;;;;5030504;28;20156;-86
2023/01/19 09:53:50;;;;;;;9.27;5.82;;;1.70;58.40;;;;;;5026148;28;20040;-87
2023/01/19 09:56:19;;;;;;;7.13;5.95;;;1.70;58.30;;;;;;5044617;28;20030;-86
2023/01/19 09:58:46;;;;;;;9.30;6.38;;;1.80;58.50;;;;;;5032036;28;20452;-85
2023/01/19 10:01:27;;;;;;;8.98;5.60;;;1.80;58.50;;;;;;5028911;28;20831;-85
2023/01/19 10:04:25;;;;;;;8.18;5.95;;;1.80;58.50;;;;;;5018090;28;20037;-86
2023/01/19 10:07:00;;;;;;;7.38;5.13;;;1.90;58.70;;;;;;5038476;28;20132;-84
2023/01/19 10:09:50;;;;;;;5.95;4.90;;;1.90;58.60;;;;;;5037971;28;20390;-85
2023/01/19 10:12:42;;;;;;;6.10;4.93;;;2.00;58.80;;;;;;5036515;28;20029;-84
2023/01/19 10:15:23;;;;;;;8.35;4.82;;;2.00;58.70;;;;;;5041158;28;20162;-85
2023/01/19 10:18:02;;;;;;;12.23;5.03;;;2.00;58.60;;;;;;5031573;28;20404;-83
2023/01/19 10:20:33;;;;;;;11.98;5.40;;;2.10;58.80;;;;;;5029579;28;20205;-86
2023/01/19 10:23:03;;;;;;;7.03;4.60;;;2.10;58.80;;;;;;5047136;28;20385;-88
2023/01/19 10:25:29;;;;;;;6.47;4.57;;;2.10;58.80;;;;;;5040486;28;20034;-88
2023/01/19 10:27:59;;;;;;;7.18;4.93;;;2.10;58.80;;;;;;5053569;28;20033;-88
2023/01/19 10:30:29;;;;;;;12.05;5.00;;;2.10;58.80;;;;;;5048056;28;20032;-88
2023/01/19 10:32:55;;;;;;;5.97;4.07;;;2.20;59.00;;;;;;5042497;28;20038;-88
2023/01/19 10:35:23;;;;;;;6.78;4.57;;;2.20;59.00;;;;;;5056455;28;20036;-88
2023/01/19 10:38:01;;;;;;;8.35;4.75;;;2.20;59.00;;;;;;5036042;28;20527;-87
2023/01/19 10:40:47;;;;;;;6.93;4.25;;;2.30;59.20;;;;;;5043287;28;20037;-89
2023/01/19 10:43:35;;;;;;;6.28;4.30;;;2.30;59.20;;;;;;5036809;28;20086;-85
2023/01/19 10:46:06;;;;;;;7.00;4.97;;;2.30;59.20;;;;;;5035372;28;20532;-86
2023/01/19 10:48:40;;;;;;;6.20;4.70;;;2.30;59.10;;;;;;5027699;28;20092;-90
2023/01/19 10:51:08;;;;;;;9.63;5.18;;;2.40;59.30;;;;;;5032506;28;20022;-89
2023/01/19 10:53:37;;;;;;;8.68;4.85;;;2.40;59.60;;;;;;5029926;28;20560;-88
2023/01/19 10:56:14;;;;;;;7.70;4.43;;;2.40;59.30;;;;;;5042455;28;20052;-87
2023/01/19 10:58:40;;;;;;;7.18;4.57;;;2.40;59.40;;;;;;5030707;28;20037;-87
2023/01/19 11:01:24;;;;;;;9.15;5.13;;;2.50;59.60;;;;;;5024156;28;20025;-89
2023/01/19 11:03:52;;;;;;;9.88;4.78;;;2.50;59.60;;;;;;5026882;28;20477;-88
2023/01/19 11:06:25;;;;;;;10.32;5.25;;;2.50;59.60;;;;;;5025080;28;20341;-90
2023/01/19 11:09:07;;;;;;;9.50;5.13;;;2.60;59.80;;;;;;5027398;28;20148;-88
2023/01/19 11:11:45;;;;;;;6.30;5.13;;;2.70;60.00;;;;;;5023773;28;20049;-87
2023/01/19 11:14:15;;;;;;;13.27;6.50;;;2.70;60.00;;;;;;5023568;28;20112;-88
2023/01/19 11:16:45;;;;;;;8.43;5.50;;;2.80;60.10;;;;;;5033016;28;20033;-90
2023/01/19 11:19:23;;;;;;;10.27;5.43;;;2.80;60.10;;;;;;5033832;28;20554;-79
2023/01/19 11:21:49;;;;;;;11.25;5.30;;;2.90;60.20;;;;;;5052986;28;20043;-79
2023/01/19 11:24:15;;;;;;;8.18;4.70;;;2.90;60.10;;;;;;5024502;28;20073;-79
2023/01/19 11:26:46;;;;;;;9.57;5.50;;;3.00;60.30;;;;;;5025966;28;20029;-88
2023/01/19 11:29:17;;;;;;;8.50;5.93;;;3.10;60.50;;;;;;5029864;28;20500;-87
2023/01/19 11:31:43;;;;;;;10.25;5.97;;;3.10;60.50;;;;;;5039893;28;20408;-85
2023/01/19 11:34:36;;;;;;;10.25;5.50;;;3.20;60.60;;;;;;5044692;28;20041;-88
2023/01/19 11:37:20;;;;;;;8.18;5.40;;;3.20;60.60;;;;;;5034277;28;20177;-86
2023/01/19 11:39:47;;;;;;;7.00;5.00;;;3.30;60.70;;;;;;5028230;28;20061;-84
2023/01/19 11:42:14;;;;;;;13.38;6.97;;;3.30;60.70;;;;;;5020042;28;20038;-85
2023/01/19 11:44:55;;;;;;;10.40;6.15;;;3.40;61.10;;;;;;5024605;28;20456;-84
2023/01/19 11:47:43;;;;;;;9.88;6.47;;;3.50;61.40;;;;;;5038852;28;20049;-86
2023/01/19 11:50:51;;;;;;;7.30;5.22;;;3.60;61.50;;;;;;5030221;28;20033;-87
2023/01/19 11:53:27;;;;;;;7.38;4.85;;;3.80;62.30;;;;;;5025472;28;20484;-85
2023/01/19 11:55:55;;;;;;;7.97;4.57;;;3.90;61.80;;;;;;5018686;28;20100;-85
2023/01/19 11:58:22;;;;;;;6.43;4.45;;;3.90;61.70;;;;;;5018755;28;20045;-78
2023/01/19 12:01:10;;;;;;;6.82;4.32;;;4.00;61.90;;;;;;5023201;28;20140;-80
2023/01/19 12:03:38;;;;;;;16.25;4.45;;;4.00;61.90;;;;;;5012780;28;20041;-79
2023/01/19 12:06:10;;;;;;;9.10;4.50;;;4.10;62.10;;;;;;5024289;28;20037;-79
2023/01/19 12:08:43;;;;;;;8.13;4.53;;;4.10;62.10;;;;;;5017212;28;20056;-80
2023/01/19 12:11:17;;;;;;;9.27;3.67;;;4.20;62.20;;;;;;5025120;28;20037;-81
2023/01/19 12:13:45;;;;;;;6.18;3.78;;;4.20;62.20;;;;;;5025545;28;20044;-84
2023/01/19 12:16:27;;;;;;;7.10;3.80;;;4.20;62.20;;;;;;5047429;28;20048;-89
2023/01/19 12:18:58;;;;;;;7.07;4.13;;;4.30;62.40;;;;;;5033239;28;20091;-88
2023/01/19 12:21:24;;;;;;;8.18;3.22;;;4.30;62.30;;;;;;5030355;28;20040;-88
2023/01/19 12:23:55;;;;;;;7.95;3.03;;;4.30;62.30;;;;;;5028931;28;20029;-88
2023/01/19 12:26:29;;;;;;;5.88;3.00;;;4.40;62.50;;;;;;5024037;28;20025;-79
2023/01/19 12:29:05;;;;;;;4.95;3.22;;;4.40;62.50;;;;;;5018495;28;20038;-80
2023/01/19 12:31:32;;;;;;;11.20;4.28;;;4.40;62.50;;;;;;5033966;28;20112;-80
2023/01/19 12:34:38;;;;;;;5.78;2.60;;;4.50;62.60;;;;;;5024408;28;20038;-79
2023/01/19 12:37:06;;;;;;;5.45;2.17;;;4.50;62.60;;;;;;5043360;28;20033;-91
2023/01/19 12:39:34;;;;;;;3.05;2.38;;;4.50;62.60;;;;;;5027863;28;20049;-90
2023/01/19 12:42:18;;;;;;;6.65;2.92;;;4.60;62.70;;;;;;5035478;28;20047;-92
2023/01/19 12:44:50;;;;;;;5.40;2.40;;;4.60;62.70;;;;;;5045035;28;20025;-93
2023/01/19 12:47:19;;;;;;;7.05;2.30;;;4.60;62.60;;;;;;5024081;28;20159;-90
2023/01/19 12:50:05;;;;;;;3.15;1.70;;;4.60;62.60;;;;;;5034842;28;20048;-91
2023/01/19 12:52:40;;;;;;;6.40;2.90;;;4.60;62.60;;;;;;5037581;28;20159;-92
2023/01/19 12:55:12;;;;;;;12.95;2.10;;;4.70;62.70;;;;;;5033982;28;20619;-89
2023/01/19 12:57:47;;;;;;;8.17;2.30;;;4.70;62.70;;;;;;5027329;28;20030;-92
2023/01/19 13:00:22;;;;;;;5.40;2.47;;;4.80;62.80;;;;;;5034858;28;20282;-93
2023/01/19 13:02:49;;;;;;;5.65;2.22;;;4.80;62.80;;;;;;5038336;28;20041;-88
2023/01/19 13:05:30;;;;;;;6.60;1.98;;;4.80;62.80;;;;;;5031602;28;20083;-90
2023/01/19 13:08:06;;;;;;;4.53;2.30;;;4.80;62.70;;;;;;5043072;28;20657;-94
2023/01/19 13:11:09;;;;;;;5.20;2.05;;;4.90;62.80;;;;;;5045756;28;20034;-95
2023/01/19 13:13:38;;;;;;;4.90;1.92;;;4.90;62.80;;;;;;5038565;28;20176;-85
2023/01/19 13:16:26;;;;;;;3.70;2.33;;;4.90;62.70;;;;;;5016666;28;20189;-81
2023/01/19 13:19:13;;;;;;;3.83;1.75;;;5.00;62.90;;;;;;5041795;28;20029;-81
2023/01/19 13:21:44;;;;;;;7.20;2.10;;;5.10;63.20;;;;;;5031425;28;20041;-83
2023/01/19 13:24:16;;;;;;;4.15;2.20;;;5.20;63.50;;;;;;5030725;28;20133;-87
2023/01/19 13:26:49;;;;;;;6.03;2.40;;;5.40;63.80;;;;;;5026612;28;20026;-87